Kintnersville, PA (18930)

2:18 AM EDT on September 04, 2015 (GMT -0400)
Haycock Twp. | | Change Station
CLOSE
Current Station
Personal Weather Station
Location: Quakertown, PA
Elevation: 580 ft
Nearby Weather Stations

Elev 580 ft 40.49 °N, 75.26 °W | Updated 0 second ago

Clear
Clear
69.5 °F
Feels Like 69.5 °F
N
0.0
Wind Variable Wind from West
Gusts 0.0 mph

Today
High -- | Low -- °F
--% Chance of Precip.
Yesterday
High -- | Low -- °F
Precip. -- in
6:30 AM 7:28 PM
Waning Gibbous, 63% visible
Pressure 29.94 in
Visibility 10.0 miles
Clouds Clear
Dew Point 68 °F
Humidity 96%
Rainfall 0.00 in
Snow Depth Not available.
UV 0 out of 12
Pollen 9.70 out of 12
Air Quality Not available.
Flu Activity Not available.
METAR KUKT 040615Z AUTO 00000KT 10SM CLR 22/19 A2994 RMK AO1
Pressure 29.94 in
Visibility 10.0 miles
Clouds Clear
Dew Point 68 °F
Humidity 96%
Rainfall 0.00 in
Snow Depth Not available.
UV 0 out of 12
Pollen 9.70 out of 12
Air Quality Not available.
Flu Activity Not available.
METAR KUKT 040615Z AUTO 00000KT 10SM CLR 22/19 A2994 RMK AO1

10-Day Weather Forecast

×

Almanac

Astronomy

Sep. 04, 2015 Rise Set
Actual Time
Civil Twilight
Nautical Twilight
Astronomical Twilight
Moon
Length of Visible Light
Length of Day
Tomorrow will be .
, % of the Moon is Illuminated

Today's Extremes

State Highs State Lows

Community

WunderPhotos

Upload Photos

1,852,132 photos uploaded!

WunderBlogs® & News

Nearby

Air Quality

  Air Quality AQ Index Pollutant
Not available.

Snow Depth

Station Depth Elevation

Earthquake Activity

City Distance Mag. Time & Date
Minimum magnitude displayed is 2.5.

Coastal Water Temperatures

Place Temperature

Stations

Nearby Weather Stations

Station Location Temp. Windchill Dew Point Humidity Wind Precip. Elev Updated Type